Time;durP1;ratioP1;P1;durP2;ratioP2;P2;SDS_P1;SDS_P2;PMS_P1;PMS_P2;Temp;Humidity;BMP_temperature;BMP_pressure;BME280_temperature;BME280_humidity;BME280_pressure;Samples;Min_cycle;Max_cycle;Signal;HPM_P1;HPM_P2
2023/05/03 00:00:09;;;;;;;1.08;0.98;;;;;;;13.62;89.72;100018.00;5114740;28;20056;-66
2023/05/03 00:02:38;;;;;;;1.15;0.93;;;;;;;13.62;89.64;100012.00;5114761;28;20068;-65
2023/05/03 00:05:13;;;;;;;0.50;0.50;;;;;;;13.60;89.25;100018.88;5114691;28;20062;-66
2023/05/03 00:07:43;;;;;;;0.52;0.52;;;;;;;13.59;89.48;100019.72;5113561;28;20044;-66
2023/05/03 00:10:14;;;;;;;0.50;0.50;;;;;;;13.54;89.79;100008.66;5114710;28;20043;-66
2023/05/03 00:12:44;;;;;;;0.73;0.73;;;;;;;13.56;89.62;100017.16;5114441;28;20543;-65
2023/05/03 00:15:13;;;;;;;2.03;1.10;;;;;;;13.55;89.45;100018.06;5114587;28;20478;-65
2023/05/03 00:17:42;;;;;;;1.77;1.08;;;;;;;13.53;89.66;100017.22;5114525;28;20127;-66
2023/05/03 00:20:14;;;;;;;0.73;0.70;;;;;;;13.52;89.65;100010.38;5114708;28;20119;-66
2023/05/03 00:22:43;;;;;;;0.40;0.40;;;;;;;13.54;89.91;100016.34;5114788;28;20067;-67
2023/05/03 00:25:12;;;;;;;0.63;0.63;;;;;;;13.55;89.63;100010.34;5114654;28;20060;-65
2023/05/03 00:27:40;;;;;;;0.75;0.73;;;;;;;13.53;89.83;100012.94;5114625;28;20455;-65
2023/05/03 00:30:10;;;;;;;0.90;0.85;;;;;;;13.53;89.73;100004.41;5114346;28;20040;-65
2023/05/03 00:32:39;;;;;;;0.65;0.63;;;;;;;13.48;90.05;100007.00;5113445;28;20044;-66
2023/05/03 00:35:08;;;;;;;0.70;0.70;;;;;;;13.43;89.90;99999.34;5114201;28;20047;-66
2023/05/03 00:37:39;;;;;;;1.65;1.08;;;;;;;13.50;90.17;100001.84;5112983;28;20043;-66
2023/05/03 00:40:09;;;;;;;1.25;1.15;;;;;;;13.56;90.06;100001.78;5112945;28;20100;-65
2023/05/03 00:42:38;;;;;;;1.23;0.63;;;;;;;13.57;90.00;100003.50;5114147;28;20044;-66
2023/05/03 00:45:08;;;;;;;1.40;0.90;;;;;;;13.54;90.33;100008.66;5114514;28;20044;-66
2023/05/03 00:47:37;;;;;;;0.60;0.60;;;;;;;13.51;90.36;100009.50;5114286;28;20344;-66
2023/05/03 00:50:10;;;;;;;0.68;0.68;;;;;;;13.54;90.02;100016.34;5113103;28;20126;-66
2023/05/03 00:52:41;;;;;;;1.23;1.02;;;;;;;13.43;90.38;99991.66;5113134;28;20370;-66
2023/05/03 00:55:11;;;;;;;0.80;0.80;;;;;;;13.49;90.45;100005.25;5114059;28;20044;-66
2023/05/03 00:57:40;;;;;;;4.05;1.48;;;;;;;13.46;90.05;100006.13;5112804;28;20040;-65
2023/05/03 01:00:12;;;;;;;1.73;1.10;;;;;;;13.39;90.45;100005.34;5112627;28;20131;-67
2023/05/03 01:02:42;;;;;;;0.70;0.63;;;;;;;13.40;90.16;99996.78;5113148;28;20046;-66
2023/05/03 01:05:11;;;;;;;0.40;0.40;;;;;;;13.39;90.52;99989.94;5112767;28;20491;-66
2023/05/03 01:08:00;;;;;;;0.68;0.68;;;;;;;13.39;90.37;99989.94;5113849;28;20123;-66
2023/05/03 01:10:38;;;;;;;1.45;1.08;;;;;;;13.38;90.72;99988.25;5114200;28;20432;-67
2023/05/03 01:13:17;;;;;;;0.77;0.73;;;;;;;13.35;90.81;99977.16;5113660;28;20113;-65
2023/05/03 01:15:54;;;;;;;1.38;1.27;;;;;;;13.28;90.78;99976.38;5113036;28;20186;-67
2023/05/03 01:18:30;;;;;;;1.88;1.60;;;;;;;13.26;90.82;99978.09;5113860;28;20048;-66
2023/05/03 01:21:00;;;;;;;0.85;0.77;;;;;;;13.22;91.12;99981.50;5113847;28;20473;-67
2023/05/03 01:23:36;;;;;;;0.43;0.43;;;;;;;13.21;90.78;99986.66;5112631;28;20047;-66
2023/05/03 01:26:21;;;;;;;0.98;0.80;;;;;;;13.22;91.18;99985.81;5113861;28;20043;-65
2023/05/03 01:28:51;;;;;;;0.35;0.35;;;;;;;13.18;91.13;99984.97;5113770;28;20059;-67
2023/05/03 01:31:26;;;;;;;0.90;0.88;;;;;;;13.19;91.13;99985.84;5114936;28;20039;-66
2023/05/03 01:34:18;;;;;;;1.15;0.98;;;;;;;13.21;90.94;99994.34;5118084;28;20116;-66
2023/05/03 01:36:50;;;;;;;0.52;0.52;;;;;;;13.17;91.09;99983.25;5116603;28;20043;-65
2023/05/03 01:39:23;;;;;;;1.08;0.98;;;;;;;13.14;90.80;99985.00;5117677;28;20048;-65
2023/05/03 01:41:55;;;;;;;2.20;1.52;;;;;;;13.04;90.94;99984.19;5116214;28;20535;-65
2023/05/03 01:44:25;;;;;;;1.27;1.17;;;;;;;13.11;91.23;99983.31;5116355;28;20093;-65
2023/05/03 01:46:57;;;;;;;0.55;0.55;;;;;;;13.11;91.13;99980.75;5116664;28;20048;-67
2023/05/03 01:49:26;;;;;;;1.27;1.17;;;;;;;13.09;91.30;99974.78;5117490;28;20052;-65
2023/05/03 01:51:55;;;;;;;1.25;1.00;;;;;;;13.14;91.31;99967.06;5117281;28;20137;-66
2023/05/03 01:54:24;;;;;;;0.70;0.70;;;;;;;13.13;91.25;99950.81;5117668;28;20386;-64
2023/05/03 01:56:55;;;;;;;0.43;0.43;;;;;;;13.16;91.56;99955.09;5117331;28;20097;-66
2023/05/03 01:59:24;;;;;;;2.03;0.85;;;;;;;13.17;91.48;99955.06;5116064;28;20096;-65
2023/05/03 02:01:53;;;;;;;0.40;0.40;;;;;;;13.14;91.16;99962.78;5115845;28;20058;-65
2023/05/03 02:04:22;;;;;;;0.50;0.50;;;;;;;13.09;91.25;99950.88;5116224;28;20557;-65
2023/05/03 02:06:52;;;;;;;0.65;0.65;;;;;;;13.12;91.57;99961.09;5117035;28;20287;-65
2023/05/03 02:09:21;;;;;;;1.05;0.95;;;;;;;13.12;91.45;99961.97;5117054;28;20043;-65
2023/05/03 02:11:50;;;;;;;0.30;0.30;;;;;;;13.16;91.47;99966.19;5116638;28;20050;-65
2023/05/03 02:14:20;;;;;;;0.70;0.70;;;;;;;13.20;91.22;99962.75;5116059;28;20641;-65
2023/05/03 02:16:50;;;;;;;1.00;0.80;;;;;;;13.18;91.38;99967.03;5117211;28;20044;-65
2023/05/03 02:19:19;;;;;;;0.70;0.70;;;;;;;13.16;91.29;99966.19;5115635;28;20083;-67
2023/05/03 02:21:48;;;;;;;0.50;0.50;;;;;;;13.19;91.56;99961.06;5116720;28;20074;-66
2023/05/03 02:24:18;;;;;;;1.08;1.00;;;;;;;13.22;91.36;99965.31;5115581;28;20040;-66
2023/05/03 02:26:49;;;;;;;1.70;1.30;;;;;;;13.22;91.20;99966.13;5116706;28;20043;-65
2023/05/03 02:29:19;;;;;;;0.60;0.60;;;;;;;13.23;91.11;99967.84;5115460;28;20050;-65
2023/05/03 02:31:49;;;;;;;0.65;0.65;;;;;;;13.29;91.14;99962.66;5115529;28;20328;-65
2023/05/03 02:34:18;;;;;;;0.55;0.55;;;;;;;13.29;91.12;99962.66;5116866;28;20047;-65
2023/05/03 02:36:48;;;;;;;0.55;0.55;;;;;;;13.24;91.30;99973.84;5116496;28;20079;-64
2023/05/03 02:39:17;;;;;;;1.98;1.75;;;;;;;13.20;91.30;99957.63;5116428;28;20036;-65
2023/05/03 02:41:46;;;;;;;0.55;0.55;;;;;;;13.17;91.26;99962.75;5115146;28;20490;-65
2023/05/03 02:44:15;;;;;;;0.50;0.50;;;;;;;13.21;91.33;99967.03;5115186;28;20043;-64
2023/05/03 02:46:46;;;;;;;0.73;0.70;;;;;;;13.25;91.26;99966.13;5116606;28;20074;-66
2023/05/03 02:49:16;;;;;;;0.57;0.57;;;;;;;13.27;91.29;99961.84;5116276;28;20067;-67
2023/05/03 02:51:45;;;;;;;2.77;1.33;;;;;;;13.27;91.08;99969.53;5114993;28;20043;-64
2023/05/03 02:54:14;;;;;;;0.55;0.55;;;;;;;13.24;91.09;99969.56;5114957;28;20043;-65
2023/05/03 02:56:44;;;;;;;;;;;;;;;13.23;90.96;99967.84;5115589;28;20048;-65
2023/05/03 02:59:12;;;;;;;0.40;0.40;;;;;;;13.19;90.82;99976.44;5115227;28;19993;-66
2023/05/03 03:01:41;;;;;;;1.33;1.23;;;;;;;13.16;90.87;99973.88;5114771;28;20513;-66
2023/05/03 03:04:14;;;;;;;0.45;0.45;;;;;;;13.17;90.83;99973.00;5115001;28;20047;-66
2023/05/03 03:06:43;;;;;;;0.80;0.65;;;;;;;13.17;90.93;99977.31;5116519;28;20455;-66
2023/05/03 03:09:13;;;;;;;0.40;0.40;;;;;;;13.11;90.76;99980.75;5115843;28;20051;-66
2023/05/03 03:11:42;;;;;;;0.87;0.83;;;;;;;13.11;91.14;99979.88;5116176;28;20077;-65
2023/05/03 03:14:11;;;;;;;1.30;1.05;;;;;;;13.05;90.94;99983.28;5115099;28;20413;-65
2023/05/03 03:16:39;;;;;;;0.30;0.30;;;;;;;13.03;91.23;99985.03;5114826;28;20413;-65
2023/05/03 03:19:08;;;;;;;0.57;0.57;;;;;;;13.03;91.41;99985.03;5115964;28;20044;-67
2023/05/03 03:21:39;;;;;;;0.77;0.77;;;;;;;13.02;91.51;99983.34;5114360;28;20493;-66
2023/05/03 03:24:09;;;;;;;1.77;0.68;;;;;;;13.00;91.46;99985.06;5115516;28;20059;-65
2023/05/03 03:26:39;;;;;;;0.60;0.60;;;;;;;13.02;91.76;99988.47;5115856;28;20062;-65
2023/05/03 03:29:10;;;;;;;0.57;0.57;;;;;;;13.05;91.92;99987.59;5114653;28;20081;-68
2023/05/03 03:31:42;;;;;;;0.98;0.82;;;;;;;13.09;91.92;99995.28;5114245;28;20051;-67
2023/05/03 03:34:12;;;;;;;0.40;0.40;;;;;;;13.07;91.72;99996.16;5114051;28;20078;-67
2023/05/03 03:36:42;;;;;;;0.47;0.47;;;;;;;13.00;91.81;99990.19;5115275;28;20050;-66
2023/05/03 03:39:11;;;;;;;1.20;1.05;;;;;;;12.98;92.14;99991.06;5115380;28;20489;-67
2023/05/03 03:41:41;;;;;;;0.73;0.73;;;;;;;12.99;92.00;99996.16;5115156;28;20130;-67
2023/05/03 03:44:11;;;;;;;1.77;1.42;;;;;;;13.03;92.10;100005.53;5114036;28;20557;-66
2023/05/03 03:46:40;;;;;;;1.30;1.08;;;;;;;13.00;92.23;100010.69;5115173;28;20056;-67
2023/05/03 03:49:09;;;;;;;0.80;0.80;;;;;;;13.01;92.42;99998.69;5114208;28;20043;-67
2023/05/03 03:51:38;;;;;;;0.30;0.30;;;;;;;13.04;92.51;100003.81;5114997;28;20276;-67
2023/05/03 03:54:09;;;;;;;1.20;1.10;;;;;;;13.06;92.48;100005.53;5114394;28;20039;-67
2023/05/03 03:56:43;;;;;;;0.52;0.52;;;;;;;13.06;92.47;100007.25;5115224;28;20371;-67
2023/05/03 03:59:12;;;;;;;0.60;0.60;;;;;;;13.05;92.31;100008.91;5115159;28;20036;-68
2023/05/03 04:01:42;;;;;;;0.70;0.70;;;;;;;13.06;92.62;100013.22;5114776;28;20280;-67
2023/05/03 04:04:11;;;;;;;1.10;0.65;;;;;;;13.07;92.53;100012.38;5114806;28;20074;-67
2023/05/03 04:06:40;;;;;;;0.80;0.80;;;;;;;13.07;92.38;100014.09;5113620;28;20063;-68
2023/05/03 04:09:16;;;;;;;0.68;0.68;;;;;;;13.08;92.34;100015.78;5114748;28;20505;-67
2023/05/03 04:11:45;;;;;;;0.60;0.60;;;;;;;13.07;92.33;100022.63;5114605;28;20043;-66
2023/05/03 04:14:14;;;;;;;0.60;0.60;;;;;;;13.09;92.33;100020.06;5114499;28;20052;-66
2023/05/03 04:16:43;;;;;;;0.77;0.77;;;;;;;13.10;92.23;100026.91;5114801;28;20401;-66
2023/05/03 04:19:13;;;;;;;0.50;0.50;;;;;;;13.08;92.10;100018.34;5113455;28;20520;-66
2023/05/03 04:21:43;;;;;;;0.45;0.45;;;;;;;13.05;92.11;100020.91;5113568;28;20081;-67
2023/05/03 04:24:16;;;;;;;0.63;0.63;;;;;;;13.04;91.98;100030.31;5113232;28;20044;-67
2023/05/03 04:26:46;;;;;;;0.43;0.43;;;;;;;13.03;92.30;100025.19;5113194;28;20047;-67
2023/05/03 04:29:21;;;;;;;0.50;0.50;;;;;;;13.06;92.01;100027.75;5114360;28;20134;-66
2023/05/03 04:31:51;;;;;;;0.88;0.80;;;;;;;13.02;92.29;100023.47;5114283;28;20043;-68
2023/05/03 04:34:20;;;;;;;0.82;0.65;;;;;;;13.08;92.15;100029.44;5113138;28;20058;-69
2023/05/03 04:36:53;;;;;;;1.63;1.52;;;;;;;13.10;92.16;100032.84;5114144;28;20048;-67
2023/05/03 04:39:25;;;;;;;0.68;0.60;;;;;;;13.13;92.42;100035.41;5114520;28;20401;-66
2023/05/03 04:41:54;;;;;;;0.60;0.60;;;;;;;13.12;92.32;100036.28;5114120;28;20134;-66
2023/05/03 04:44:25;;;;;;;0.40;0.40;;;;;;;13.14;92.42;100039.69;5096241;28;20053;-68
2023/05/03 04:46:55;;;;;;;0.65;0.65;;;;;;;13.10;92.10;100043.09;5114187;28;20047;-68
2023/05/03 04:49:26;;;;;;;0.70;0.70;;;;;;;13.07;92.16;100043.13;5112980;28;20047;-66
2023/05/03 04:51:55;;;;;;;0.50;0.50;;;;;;;13.10;91.96;100043.09;5113066;28;20462;-69
2023/05/03 04:54:27;;;;;;;0.77;0.77;;;;;;;13.08;91.80;100042.25;5113993;28;20052;-68
2023/05/03 04:56:56;;;;;;;0.77;0.77;;;;;;;13.05;91.76;100049.91;5114255;28;20043;-66
2023/05/03 04:59:25;;;;;;;0.88;0.88;;;;;;;13.04;91.96;100048.25;5112741;28;20394;-67
2023/05/03 05:01:54;;;;;;;1.33;1.10;;;;;;;13.02;91.70;100044.84;5112674;28;20123;-66
2023/05/03 05:04:25;;;;;;;0.28;0.28;;;;;;;13.05;91.76;100047.34;5114570;28;20443;-67
2023/05/03 05:06:55;;;;;;;3.35;1.15;;;;;;;13.04;91.67;100057.63;5116820;28;20172;-68
2023/05/03 05:09:30;;;;;;;0.45;0.45;;;;;;;13.02;91.96;100054.22;5117045;28;20044;-68
2023/05/03 05:12:02;;;;;;;1.40;1.30;;;;;;;13.05;91.98;100054.22;5118391;28;20120;-69
2023/05/03 05:14:37;;;;;;;0.70;0.70;;;;;;;13.07;91.81;100058.50;5117111;28;20150;-68
2023/05/03 05:17:08;;;;;;;0.65;0.65;;;;;;;13.06;91.82;100061.06;5116811;28;20047;-68
2023/05/03 05:19:37;;;;;;;0.55;0.55;;;;;;;13.03;92.00;100061.91;5118024;28;20511;-67
2023/05/03 05:22:06;;;;;;;0.88;0.88;;;;;;;13.02;91.93;100061.91;5118186;28;20040;-67
2023/05/03 05:24:46;;;;;;;0.57;0.57;;;;;;;12.99;91.75;100065.34;5118288;28;20116;-66
2023/05/03 05:27:16;;;;;;;1.13;1.02;;;;;;;12.99;91.76;100065.34;5117906;28;20044;-68
2023/05/03 05:29:46;;;;;;;0.55;0.55;;;;;;;13.05;91.94;100067.03;5117753;28;20035;-66
2023/05/03 05:32:15;;;;;;;4.35;1.92;;;;;;;13.06;91.62;100066.19;5116799;28;20077;-67
2023/05/03 05:34:51;;;;;;;1.35;0.82;;;;;;;12.94;91.48;100046.56;5116813;28;20454;-66
2023/05/03 05:37:22;;;;;;;0.40;0.40;;;;;;;13.13;91.47;100067.88;5117602;28;20043;-67
2023/05/03 05:39:53;;;;;;;1.00;0.75;;;;;;;13.15;91.65;100067.00;5117885;28;20417;-67
2023/05/03 05:42:25;;;;;;;0.50;0.50;;;;;;;13.17;91.49;100065.28;5117771;28;20051;-66
2023/05/03 05:44:56;;;;;;;0.85;0.77;;;;;;;13.14;91.55;100060.19;5117504;28;20071;-65
2023/05/03 05:47:25;;;;;;;0.45;0.45;;;;;;;13.08;91.38;100062.75;5117786;28;20505;-67
2023/05/03 05:49:57;;;;;;;0.63;0.63;;;;;;;13.09;91.16;100066.19;5115917;28;20055;-66
2023/05/03 05:52:27;;;;;;;0.43;0.43;;;;;;;13.07;91.58;100068.75;5116492;28;20581;-66
2023/05/03 05:54:57;;;;;;;0.50;0.50;;;;;;;13.11;91.30;100070.44;5116190;28;20047;-66
2023/05/03 05:57:26;;;;;;;3.15;0.82;;;;;;;13.11;90.97;100065.31;5115998;28;20040;-67
2023/05/03 05:59:55;;;;;;;1.35;1.05;;;;;;;13.13;90.98;100067.88;5116314;28;20093;-67
2023/05/03 06:02:26;;;;;;;0.40;0.40;;;;;;;13.14;90.87;100075.56;5115940;28;20044;-67
2023/05/03 06:04:56;;;;;;;0.50;0.50;;;;;;;13.16;90.77;100078.97;5117172;28;20078;-66
2023/05/03 06:07:25;;;;;;;1.13;0.93;;;;;;;13.17;90.56;100083.22;5117109;28;20047;-67
2023/05/03 06:09:54;;;;;;;0.57;0.57;;;;;;;13.16;90.27;100080.66;5115783;28;20071;-66
2023/05/03 06:12:25;;;;;;;;;;;;;;;13.17;90.29;100085.78;5116034;28;20127;-66
2023/05/03 06:14:54;;;;;;;0.40;0.40;;;;;;;13.18;90.53;100090.06;5099045;28;20331;-65
2023/05/03 06:17:31;;;;;;;1.05;0.95;;;;;;;13.19;90.39;100088.34;5116550;28;20047;-68
2023/05/03 06:20:00;;;;;;;0.50;0.50;;;;;;;13.25;90.20;100088.31;5116866;28;20031;-67
2023/05/03 06:22:29;;;;;;;0.98;0.77;;;;;;;13.24;90.37;100086.63;5116724;28;20043;-66
2023/05/03 06:24:59;;;;;;;0.40;0.40;;;;;;;13.25;90.03;100093.44;5116783;28;20043;-66
2023/05/03 06:27:29;;;;;;;0.40;0.40;;;;;;;13.27;89.85;100096.84;5115435;28;20035;-66
2023/05/03 06:29:58;;;;;;;0.40;0.40;;;;;;;13.25;89.83;100093.44;5115426;28;20264;-66
2023/05/03 06:32:27;;;;;;;0.60;0.60;;;;;;;13.23;89.89;100096.03;5115426;28;20040;-67
2023/05/03 06:34:58;;;;;;;1.37;1.00;;;;;;;13.23;89.57;100106.28;5115282;28;20120;-66
2023/05/03 06:37:27;;;;;;;0.50;0.50;;;;;;;13.21;89.82;100102.88;5115577;28;20512;-67
2023/05/03 06:39:56;;;;;;;0.40;0.40;;;;;;;13.20;89.44;100103.72;5116657;28;20040;-67
2023/05/03 06:42:24;;;;;;;0.73;0.73;;;;;;;13.21;89.39;100107.13;5116729;28;20128;-66
2023/05/03 06:45:08;;;;;;;0.98;0.68;;;;;;;13.21;89.62;100115.69;5116201;28;20046;-67
2023/05/03 06:47:41;;;;;;;0.70;0.70;;;;;;;13.21;89.45;100110.56;5116234;27;20043;-66
2023/05/03 06:50:11;;;;;;;0.50;0.50;;;;;;;13.22;89.61;100113.97;5115445;28;20048;-68
2023/05/03 06:52:40;;;;;;;0.30;0.30;;;;;;;13.19;89.24;100114.84;5116155;28;20070;-66
2023/05/03 06:55:09;;;;;;;0.88;0.88;;;;;;;13.16;89.42;100114.84;5116205;28;20043;-65
2023/05/03 06:57:39;;;;;;;0.75;0.75;;;;;;;13.16;89.24;100114.84;5116428;28;20396;-65
2023/05/03 07:00:13;;;;;;;0.60;0.60;;;;;;;13.19;89.31;100119.09;5116443;28;20046;-67
2023/05/03 07:02:42;;;;;;;0.22;0.22;;;;;;;13.14;89.34;100116.56;5114912;28;20052;-67
2023/05/03 07:05:11;;;;;;;0.70;0.70;;;;;;;13.14;88.82;100120.84;5116167;28;20481;-66
2023/05/03 07:07:40;;;;;;;0.30;0.30;;;;;;;13.17;88.77;100120.84;5116286;28;20039;-66
2023/05/03 07:10:09;;;;;;;0.43;0.43;;;;;;;13.20;89.15;100131.91;5116135;28;20059;-66
2023/05/03 07:12:37;;;;;;;0.30;0.30;;;;;;;13.22;88.96;100132.75;5115791;28;20052;-67
2023/05/03 07:15:07;;;;;;;0.30;0.30;;;;;;;13.20;88.43;100129.34;5115736;28;20486;-66
2023/05/03 07:17:37;;;;;;;0.50;0.50;;;;;;;13.15;88.21;100136.19;5115803;28;20043;-68
2023/05/03 07:20:08;;;;;;;0.40;0.40;;;;;;;13.14;88.35;100131.94;5115672;28;20044;-66
2023/05/03 07:22:37;;;;;;;0.77;0.77;;;;;;;13.16;88.07;100140.47;5115659;28;20043;-65
2023/05/03 07:25:06;;;;;;;0.85;0.73;;;;;;;13.13;88.20;100140.47;5115445;28;20050;-67
2023/05/03 07:27:35;;;;;;;0.55;0.55;;;;;;;13.19;88.20;100145.59;5114902;28;20036;-66
2023/05/03 07:30:05;;;;;;;0.20;0.20;;;;;;;13.19;88.26;100150.72;5115571;28;20036;-67
2023/05/03 07:32:34;;;;;;;0.50;0.50;;;;;;;13.11;88.15;100152.44;5115941;28;20043;-67
2023/05/03 07:35:06;;;;;;;0.70;0.70;;;;;;;13.08;88.18;100152.44;5115296;28;20072;-65
2023/05/03 07:37:36;;;;;;;0.90;0.70;;;;;;;13.10;88.25;100155.88;5115281;27;20056;-66
2023/05/03 07:40:06;;;;;;;0.40;0.40;;;;;;;13.05;88.13;100157.56;5115343;27;20061;-65
2023/05/03 07:42:36;;;;;;;0.30;0.30;;;;;;;13.05;88.28;100152.41;5115182;28;20051;-68
2023/05/03 07:45:05;;;;;;;0.30;0.30;;;;;;;13.08;88.37;100161.84;5114931;28;20092;-65
2023/05/03 07:47:36;;;;;;;0.63;0.63;;;;;;;13.07;88.32;100158.47;5115080;28;20085;-65
2023/05/03 07:50:08;;;;;;;0.43;0.43;;;;;;;13.04;88.36;100160.13;5115085;28;20059;-65
2023/05/03 07:52:37;;;;;;;0.30;0.30;;;;;;;13.01;88.28;100161.00;5115286;28;20513;-66
2023/05/03 07:55:07;;;;;;;0.80;0.70;;;;;;;13.00;88.16;100161.88;5115319;28;20047;-66
2023/05/03 07:57:36;;;;;;;0.30;0.30;;;;;;;12.97;88.39;100167.00;5115140;28;20436;-67
2023/05/03 08:00:09;;;;;;;0.57;0.57;;;;;;;12.94;88.35;100169.56;5114772;28;20510;-65
2023/05/03 08:02:41;;;;;;;0.50;0.50;;;;;;;12.97;88.36;100161.88;5114896;28;20055;-65
2023/05/03 08:05:13;;;;;;;0.98;0.88;;;;;;;12.97;88.24;100159.31;5114537;28;20093;-65
2023/05/03 08:07:43;;;;;;;0.40;0.40;;;;;;;12.96;88.28;100160.16;5114760;28;20054;-68
2023/05/03 08:10:12;;;;;;;0.38;0.38;;;;;;;12.97;88.11;100172.13;5114530;28;20119;-69
2023/05/03 08:12:41;;;;;;;0.43;0.43;;;;;;;12.97;88.31;100161.00;5114463;28;20506;-66
2023/05/03 08:15:10;;;;;;;0.55;0.55;;;;;;;13.01;87.95;100166.13;5114475;28;20061;-67
2023/05/03 08:17:43;;;;;;;0.50;0.50;;;;;;;13.09;88.27;100167.00;5114406;28;20036;-68
2023/05/03 08:20:15;;;;;;;1.52;1.35;;;;;;;13.15;87.93;100169.50;5114567;28;20040;-68
2023/05/03 08:22:45;;;;;;;0.85;0.85;;;;;;;13.19;88.38;100173.78;5114412;28;20519;-68
2023/05/03 08:25:15;;;;;;;0.70;0.70;;;;;;;13.21;88.06;100179.75;5114371;28;20067;-67
2023/05/03 08:27:44;;;;;;;0.47;0.47;;;;;;;13.24;88.30;100184.88;5113044;28;20039;-68
2023/05/03 08:30:13;;;;;;;1.75;0.65;;;;;;;13.30;88.21;100181.44;5114335;28;20565;-68
2023/05/03 08:32:42;;;;;;;0.50;0.50;;;;;;;13.32;87.83;100183.13;5114057;28;20073;-68
2023/05/03 08:35:12;;;;;;;0.82;0.82;;;;;;;13.26;87.65;100188.28;5114171;28;20055;-68
2023/05/03 08:37:44;;;;;;;0.50;0.50;;;;;;;13.25;87.55;100186.56;5114245;28;20048;-68
2023/05/03 08:40:14;;;;;;;0.80;0.80;;;;;;;13.26;87.10;100184.88;5113932;28;20043;-68
2023/05/03 08:42:44;;;;;;;1.10;0.75;;;;;;;13.29;87.58;100190.00;5114143;28;20047;-67
2023/05/03 08:45:15;;;;;;;0.85;0.85;;;;;;;13.29;87.09;100192.56;5114416;28;20071;-67
2023/05/03 08:47:44;;;;;;;2.67;2.33;;;;;;;13.31;87.11;100193.41;5114612;28;20051;-69
2023/05/03 08:50:16;;;;;;;19.52;1.70;;;;;;;13.33;86.70;100195.09;5114014;28;20051;-69
2023/05/03 08:52:46;;;;;;;0.73;0.73;;;;;;;13.35;86.69;100202.78;5114308;28;20051;-68
2023/05/03 08:55:15;;;;;;;0.32;0.32;;;;;;;13.39;86.73;100202.75;5113967;28;20050;-68
2023/05/03 08:57:44;;;;;;;0.30;0.30;;;;;;;13.43;86.85;100196.78;5113790;28;20047;-69
2023/05/03 09:00:14;;;;;;;0.67;0.50;;;;;;;13.41;86.47;100206.16;5113872;28;20088;-68
2023/05/03 09:02:43;;;;;;;0.40;0.40;;;;;;;13.36;86.62;100205.31;5113786;28;20134;-69
2023/05/03 09:05:31;;;;;;;0.77;0.77;;;;;;;13.41;86.51;100203.59;5114176;28;20495;-68
2023/05/03 09:08:07;;;;;;;0.50;0.50;;;;;;;13.53;86.55;100207.00;5114565;28;20093;-70
2023/05/03 09:10:39;;;;;;;0.60;0.60;;;;;;;13.56;86.41;100212.94;5113851;28;20067;-69
2023/05/03 09:13:09;;;;;;;0.40;0.40;;;;;;;13.58;86.03;100211.22;5113505;28;20055;-70
2023/05/03 09:15:38;;;;;;;1.23;1.05;;;;;;;13.61;85.67;100205.22;5113460;28;20036;-70
2023/05/03 09:18:16;;;;;;;0.70;0.70;;;;;;;13.66;85.70;100208.63;5113701;28;20050;-69
2023/05/03 09:20:50;;;;;;;0.70;0.70;;;;;;;13.68;85.31;100201.78;5113747;28;20130;-67
2023/05/03 09:23:30;;;;;;;1.00;0.80;;;;;;;13.78;85.03;100203.44;5114107;28;20439;-67
2023/05/03 09:26:00;;;;;;;1.33;0.80;;;;;;;13.84;84.75;100203.41;5113779;28;20044;-68
2023/05/03 09:28:28;;;;;;;1.25;1.15;;;;;;;13.95;84.61;100210.19;5113627;28;20279;-68
2023/05/03 09:31:08;;;;;;;0.50;0.50;;;;;;;14.05;84.65;100208.41;5113620;28;20047;-71
2023/05/03 09:33:40;;;;;;;1.58;1.48;;;;;;;14.11;83.98;100208.38;5113516;28;20062;-71
2023/05/03 09:36:10;;;;;;;0.70;0.70;;;;;;;14.24;84.21;100211.72;5113944;28;20401;-71
2023/05/03 09:38:41;;;;;;;1.35;1.08;;;;;;;14.26;83.97;100213.41;5112652;28;20067;-69
2023/05/03 09:41:10;;;;;;;0.60;0.60;;;;;;;14.25;83.87;100211.72;5112371;28;20051;-66
2023/05/03 09:43:49;;;;;;;2.72;1.42;;;;;;;14.23;83.55;100210.84;5094994;28;20044;-67
2023/05/03 09:46:19;;;;;;;0.60;0.60;;;;;;;14.30;83.13;100209.97;5113493;28;20054;-67
2023/05/03 09:48:49;;;;;;;0.40;0.40;;;;;;;14.37;82.95;100210.81;5112344;28;20071;-66
2023/05/03 09:51:18;;;;;;;0.93;0.75;;;;;;;14.36;82.52;100217.66;5114140;28;20058;-66
2023/05/03 09:53:49;;;;;;;0.60;0.60;;;;;;;14.44;81.91;100215.88;5117560;28;20054;-67
2023/05/03 09:56:21;;;;;;;0.65;0.50;;;;;;;14.53;81.55;100215.81;5117705;28;20036;-67
2023/05/03 09:58:50;;;;;;;0.50;0.50;;;;;;;14.58;81.52;100214.06;5117236;28;20071;-64
2023/05/03 10:01:21;;;;;;;0.47;0.47;;;;;;;14.62;80.75;100213.16;5117540;28;20046;-68
2023/05/03 10:03:53;;;;;;;0.43;0.43;;;;;;;14.80;80.85;100211.28;5117132;28;20550;-70
2023/05/03 10:06:26;;;;;;;0.40;0.40;;;;;;;14.86;80.89;100213.78;5117242;28;20039;-67
2023/05/03 10:09:04;;;;;;;0.50;0.50;;;;;;;14.77;80.04;100207.88;5117010;28;20512;-68
2023/05/03 10:11:36;;;;;;;3.30;0.88;;;;;;;14.86;79.68;100216.34;5116911;28;20043;-66
2023/05/03 10:14:06;;;;;;;0.50;0.50;;;;;;;15.01;79.92;100206.78;5116828;28;20079;-65
2023/05/03 10:16:39;;;;;;;0.73;0.73;;;;;;;15.00;79.19;100194.78;5115650;28;20043;-65
2023/05/03 10:19:13;;;;;;;0.70;0.70;;;;;;;15.02;79.04;100202.50;5117567;28;20436;-69
2023/05/03 10:21:55;;;;;;;0.40;0.40;;;;;;;15.05;77.92;100194.75;5117085;28;20087;-65
2023/05/03 10:24:25;;;;;;;2.17;1.45;;;;;;;14.99;77.22;100187.09;5116801;28;20047;-66
2023/05/03 10:26:56;;;;;;;0.93;0.90;;;;;;;15.02;77.24;100192.22;5116666;28;20043;-67
2023/05/03 10:29:48;;;;;;;2.15;0.77;;;;;;;15.22;77.59;100200.56;5116668;28;20050;-68
2023/05/03 10:32:29;;;;;;;0.40;0.40;;;;;;;15.22;76.88;100198.84;5116689;28;20126;-66
2023/05/03 10:35:02;;;;;;;0.45;0.45;;;;;;;15.24;76.21;100198.81;5116551;27;20555;-65
2023/05/03 10:37:35;;;;;;;0.50;0.50;;;;;;;15.28;75.80;100190.22;5116746;28;20130;-68
2023/05/03 10:40:10;;;;;;;0.40;0.40;;;;;;;15.33;75.29;100188.44;5116822;28;20488;-65
2023/05/03 10:42:43;;;;;;;0.43;0.43;;;;;;;15.56;75.49;100195.91;5116671;28;20071;-66
2023/05/03 10:45:22;;;;;;;0.40;0.40;;;;;;;15.62;74.50;100201.81;5116391;28;20104;-65
2023/05/03 10:48:15;;;;;;;0.82;0.82;;;;;;;15.73;74.51;100194.81;5116292;28;20044;-66
2023/05/03 10:50:44;;;;;;;0.50;0.50;;;;;;;15.87;74.71;100198.06;5116238;28;20043;-65
2023/05/03 10:53:35;;;;;;;0.50;0.50;;;;;;;15.96;74.64;100200.50;5116133;28;20047;-65
2023/05/03 10:56:08;;;;;;;0.43;0.43;;;;;;;16.00;74.67;100202.13;5116139;28;20044;-64
2023/05/03 10:58:42;;;;;;;0.93;0.73;;;;;;;16.00;73.85;100199.56;5116119;27;20047;-63
2023/05/03 11:01:12;;;;;;;0.35;0.35;;;;;;;16.17;73.52;100196.78;5116052;28;20082;-64
2023/05/03 11:03:50;;;;;;;0.50;0.50;;;;;;;16.34;73.44;100199.09;5114810;28;20059;-68
2023/05/03 11:06:33;;;;;;;8.13;1.60;;;;;;;16.46;73.55;100198.88;5116263;28;20051;-68
2023/05/03 11:09:04;;;;;;;0.95;0.73;;;;;;;16.64;73.62;100190.88;5115881;28;20040;-65
2023/05/03 11:11:38;;;;;;;0.85;0.55;;;;;;;16.53;72.47;100195.38;5115882;28;20044;-66
2023/05/03 11:14:08;;;;;;;0.93;0.85;;;;;;;16.40;72.28;100194.69;5115623;28;20086;-67
2023/05/03 11:16:39;;;;;;;;;;;;;;;16.45;72.04;100186.88;5116418;28;20438;-65
2023/05/03 11:19:09;;;;;;;0.75;0.75;;;;;;;16.46;72.21;100188.59;5116089;28;19920;-68
2023/05/03 11:21:38;;;;;;;11.13;1.70;;;;;;;16.56;72.28;100195.28;5115770;28;20071;-65
2023/05/03 11:24:07;;;;;;;0.65;0.60;;;;;;;16.66;72.26;100189.09;5115938;28;20039;-64
2023/05/03 11:26:38;;;;;;;0.68;0.68;;;;;;;16.53;72.10;100197.94;5115430;28;20080;-65
2023/05/03 11:29:10;;;;;;;1.65;0.82;;;;;;;16.37;71.96;100209.31;5115948;28;20452;-65
2023/05/03 11:31:41;;;;;;;0.50;0.50;;;;;;;16.23;71.81;100206.09;5115445;28;20097;-65
2023/05/03 11:34:11;;;;;;;0.50;0.50;;;;;;;16.08;71.90;100197.75;5115763;28;20060;-65
2023/05/03 11:36:41;;;;;;;0.85;0.60;;;;;;;15.88;71.23;100198.91;5115257;28;20486;-67
2023/05/03 11:39:14;;;;;;;0.43;0.43;;;;;;;15.67;71.55;100194.88;5115181;28;20047;-65
2023/05/03 11:42:03;;;;;;;0.70;0.70;;;;;;;15.62;71.90;100198.41;5115246;28;20134;-65
2023/05/03 11:44:32;;;;;;;0.50;0.50;;;;;;;15.65;72.06;100191.47;5115180;28;20078;-67